»·PEaware :: ACL912 KLAS-KLAX

ACL912 :: KLAS-KLAX

FLIGHT INFORMATION

Flight Status: Arrived
Operator: Unknown
More flights by this operator :: More flights under this callsign
Pilot: Anonymous 45473 (45473)
Aircraft: BOEING 737-600
(B736)
More flights by this aircraft type
Origin: KLAS Harry Reid Intl
United States
Destination: KLAX Los Angeles Intl
United States
More flights between these airports :: More routes between these airports
Route: RADYR2 BLAQQ SHTNR ANJLL4
File this flight plan on PilotEdge
Remarks: First Flight -)
Altitude:
(Current/Filed)
32,000ft
Speed:
(Current/Filed)
400kts
Departed: 28-Oct-23 09:42 AM
Arrived: 28-Oct-23 10:27 AM
Distance/Time
Traveled:
205nm/0:44
Distance/Time
To Go:
Arrived

Flight Plot

Page will automatically refresh every two minutes.

Flight plan parsing failed; only flown route is shown


Map Options




Map Legend


Flown Route
Filed Route
Departure Airport
Arrival Airport
Navaid (VOR, NDB)
Fix

Horizontal Profiles

Position Reports

Time Latitude Longitude Heading Altitude Ground
Speed
28-Oct-23 09:05 36.079636 -115.132306 270 2187ft 0kts
28-Oct-23 09:06 36.079636 -115.132306 270 2187ft 0kts
28-Oct-23 09:07 36.079636 -115.132306 270 2187ft 0kts
28-Oct-23 09:08 36.079636 -115.132306 270 2177ft 0kts
28-Oct-23 09:09 36.079636 -115.132306 270 2177ft 0kts
28-Oct-23 09:10 36.079636 -115.132306 270 2177ft 0kts
28-Oct-23 09:11 36.079636 -115.132306 270 2177ft 0kts
28-Oct-23 09:12 36.079636 -115.132306 270 2177ft 0kts
28-Oct-23 09:13 36.079636 -115.132306 270 2177ft 0kts
28-Oct-23 09:14 36.079636 -115.132306 270 2177ft 0kts
28-Oct-23 09:15 36.079636 -115.132306 270 2177ft 0kts
28-Oct-23 09:16 36.079636 -115.132306 270 2177ft 0kts
28-Oct-23 09:17 36.079636 -115.132306 270 2177ft 0kts
28-Oct-23 09:18 36.079636 -115.132306 270 2177ft 0kts
28-Oct-23 09:19 36.079636 -115.132306 270 2177ft 0kts
28-Oct-23 09:20 36.079636 -115.132306 270 2177ft 0kts
28-Oct-23 09:21 36.079636 -115.132306 270 2177ft 0kts
28-Oct-23 09:22 36.079636 -115.132306 270 2177ft 0kts
28-Oct-23 09:23 36.079636 -115.132306 270 2177ft 0kts
28-Oct-23 09:24 36.079636 -115.132306 270 2177ft 0kts
28-Oct-23 09:25 36.079636 -115.132306 270 2187ft 0kts
28-Oct-23 09:26 36.079636 -115.132306 270 2187ft 0kts
28-Oct-23 09:27 36.079636 -115.132306 270 2187ft 0kts
28-Oct-23 09:28 36.079636 -115.132306 270 2187ft 0kts
28-Oct-23 09:29 36.079636 -115.132306 270 2187ft 0kts
28-Oct-23 09:30 36.079636 -115.132306 270 2187ft 0kts
28-Oct-23 09:31 36.079636 -115.132306 270 2187ft 0kts
28-Oct-23 09:32 36.079636 -115.132403 269 2189ft 2kts
28-Oct-23 09:33 36.079636 -115.132500 269 2188ft 0kts
28-Oct-23 09:34 36.079636 -115.132500 269 2188ft 0kts
28-Oct-23 09:35 36.079088 -115.132909 180 2187ft 5kts
28-Oct-23 09:36 36.078266 -115.130716 90 2187ft 11kts
28-Oct-23 09:37 36.078279 -115.125605 90 2186ft 17kts
28-Oct-23 09:38 36.077429 -115.121412 139 2187ft 0kts
28-Oct-23 09:39 36.077429 -115.121412 139 2187ft 0kts
28-Oct-23 09:40 36.077429 -115.121412 139 2187ft 0kts
28-Oct-23 09:41 36.076437 -115.123810 269 2187ft 56kts
28-Oct-23 09:42 36.076983 -115.171569 271 3712ft 167kts
28-Oct-23 09:43 36.069788 -115.246407 243 5316ft 252kts
28-Oct-23 09:44 36.004304 -115.288986 200 7930ft 283kts
28-Oct-23 09:45 35.926464 -115.311005 191 9126ft 289kts
28-Oct-23 09:46 35.843183 -115.330692 193 12166ft 321kts
28-Oct-23 09:47 35.750708 -115.353305 195 14846ft 358kts
28-Oct-23 09:48 35.651814 -115.377442 197 18116ft 371kts
28-Oct-23 09:49 35.545512 -115.384273 184 20903ft 398kts
28-Oct-23 09:50 35.434083 -115.381656 207 23373ft 389kts
28-Oct-23 09:51 35.339681 -115.440510 217 25618ft 385kts
28-Oct-23 09:52 35.243701 -115.502359 216 27692ft 396kts
28-Oct-23 09:53 35.144607 -115.565534 216 29589ft 407kts
28-Oct-23 09:54 35.063735 -115.655699 233 31021ft 392kts
28-Oct-23 09:55 34.989371 -115.751004 232 31992ft 385kts
28-Oct-23 09:56 34.914662 -115.846030 232 32019ft 382kts
28-Oct-23 09:57 34.840995 -115.939493 232 32025ft 384kts
28-Oct-23 09:58 34.766498 -116.033755 232 32020ft 387kts
28-Oct-23 09:59 34.692013 -116.128628 232 32005ft 388kts
28-Oct-23 10:00 34.617409 -116.223445 232 32012ft 388kts
28-Oct-23 10:01 34.542780 -116.318035 232 31658ft 392kts
28-Oct-23 10:02 34.467201 -116.413522 232 30546ft 387kts
28-Oct-23 10:03 34.401195 -116.513034 248 29489ft 373kts
28-Oct-23 10:04 34.355471 -116.626150 247 27934ft 372kts
28-Oct-23 10:05 34.310913 -116.735221 247 25928ft 354kts
28-Oct-23 10:06 34.268573 -116.840674 247 24067ft 343kts
28-Oct-23 10:07 34.227636 -116.942158 247 23002ft 339kts
28-Oct-23 10:08 34.193226 -117.046726 255 21343ft 327kts
28-Oct-23 10:09 34.165933 -117.150040 256 19491ft 318kts
28-Oct-23 10:10 34.137948 -117.251847 255 17387ft 317kts
28-Oct-23 10:11 34.110601 -117.350981 255 15602ft 306kts
28-Oct-23 10:12 34.085467 -117.449333 256 13585ft 306kts
28-Oct-23 10:13 34.057818 -117.543210 249 12111ft 296kts
28-Oct-23 10:14 34.024719 -117.633204 250 10522ft 290kts
28-Oct-23 10:15 34.002956 -117.718572 267 9929ft 250kts
28-Oct-23 10:16 33.995325 -117.800825 267 8721ft 244kts
28-Oct-23 10:17 33.987483 -117.881733 267 7555ft 243kts
28-Oct-23 10:18 33.979514 -117.962873 267 6372ft 245kts
28-Oct-23 10:19 33.971443 -118.044508 266 5166ft 245kts
28-Oct-23 10:20 33.963605 -118.123238 265 4199ft 237kts
28-Oct-23 10:21 33.956345 -118.199180 263 3116ft 216kts
28-Oct-23 10:22 33.949450 -118.265425 263 2047ft 172kts
28-Oct-23 10:23 33.944224 -118.316011 262 1245ft 147kts
28-Oct-23 10:24 33.939227 -118.364777 262 439ft 141kts
28-Oct-23 10:25 33.935113 -118.404748 262 111ft 50kts
28-Oct-23 10:26 33.935485 -118.412181 277 105ft 3kts
28-Oct-23 10:27 33.937319 -118.412760 13 103ft 4kts
28-Oct-23 10:28 33.938576 -118.410046 81 96ft 11kts
28-Oct-23 10:29 33.939109 -118.404927 83 97ft 16kts
28-Oct-23 10:30 33.939633 -118.399734 79 97ft 12kts
28-Oct-23 10:31 33.941487 -118.398338 342 94ft 6kts
28-Oct-23 10:32 33.941868 -118.399107 297 95ft 0kts
28-Oct-23 10:33 33.941868 -118.399107 297 95ft 0kts

Navigation Log

Ident Type
Flight plan parsing failed, navigation log unavailable